Terminal Aerodrome Forecast
Issued by NWS

Home | Current Version | Previous Version | Text Only | Print | Product List | Glossary On
Versions: 1 2 3 4 5 6 7 8 9 10 11 12 13 14 15 16
000
FTUS46 KLOX 251747
TAFVNY
TAF
KVNY 251747Z 2518/2618 VRB03KT 6SM HZ SKC
     FM252000 15010KT P6SM SKC
     FM260400 VRB03KT P6SM SCT200
     FM261100 VRB03KT 6SM BR OVC007
     FM261600 VRB03KT P6SM SCT011=

USA.gov is the U.S. government's official web portal to all federal, state and local government web resources and services.